sensor_id;sensor_type;location;lat;lon;timestamp;temperature;humidity
70271;SHT31;57680;54.292;18.598;2023-02-28T00:02:12;-4.80;91.29
70271;SHT31;57680;54.292;18.598;2023-02-28T00:04:37;-4.75;92.10
70271;SHT31;57680;54.292;18.598;2023-02-28T00:07:02;-4.58;91.91
70271;SHT31;57680;54.292;18.598;2023-02-28T00:09:28;-4.38;91.67
70271;SHT31;57680;54.292;18.598;2023-02-28T00:11:53;-4.29;91.04
70271;SHT31;57680;54.292;18.598;2023-02-28T00:14:19;-4.27;90.88
70271;SHT31;57680;54.292;18.598;2023-02-28T00:16:44;-4.22;91.28
70271;SHT31;57680;54.292;18.598;2023-02-28T00:19:10;-4.05;91.02
70271;SHT31;57680;54.292;18.598;2023-02-28T00:21:35;-3.98;89.81
70271;SHT31;57680;54.292;18.598;2023-02-28T00:24:00;-3.96;88.97
70271;SHT31;57680;54.292;18.598;2023-02-28T00:26:26;-4.07;87.71
70271;SHT31;57680;54.292;18.598;2023-02-28T00:28:52;-4.31;88.62
70271;SHT31;57680;54.292;18.598;2023-02-28T00:31:18;-4.40;90.01
70271;SHT31;57680;54.292;18.598;2023-02-28T00:33:43;-4.29;91.13
70271;SHT31;57680;54.292;18.598;2023-02-28T00:36:10;-4.05;91.26
70271;SHT31;57680;54.292;18.598;2023-02-28T00:38:37;-3.97;90.06
70271;SHT31;57680;54.292;18.598;2023-02-28T00:41:02;-3.77;89.68
70271;SHT31;57680;54.292;18.598;2023-02-28T00:43:28;-3.70;88.17
70271;SHT31;57680;54.292;18.598;2023-02-28T00:45:53;-3.72;88.56
70271;SHT31;57680;54.292;18.598;2023-02-28T00:48:18;-3.59;90.62
70271;SHT31;57680;54.292;18.598;2023-02-28T00:50:44;-3.60;88.02
70271;SHT31;57680;54.292;18.598;2023-02-28T00:53:09;-3.83;88.04
70271;SHT31;57680;54.292;18.598;2023-02-28T00:55:35;-3.96;88.32
70271;SHT31;57680;54.292;18.598;2023-02-28T00:58:00;-4.03;88.15
70271;SHT31;57680;54.292;18.598;2023-02-28T01:00:26;-4.04;88.76
70271;SHT31;57680;54.292;18.598;2023-02-28T01:02:51;-4.08;88.79
70271;SHT31;57680;54.292;18.598;2023-02-28T01:05:16;-4.10;89.38
70271;SHT31;57680;54.292;18.598;2023-02-28T01:07:42;-4.10;89.14
70271;SHT31;57680;54.292;18.598;2023-02-28T01:10:08;-4.18;88.87
70271;SHT31;57680;54.292;18.598;2023-02-28T01:12:34;-4.27;89.06
70271;SHT31;57680;54.292;18.598;2023-02-28T01:14:59;-4.34;88.92
70271;SHT31;57680;54.292;18.598;2023-02-28T01:17:25;-4.48;88.67
70271;SHT31;57680;54.292;18.598;2023-02-28T01:19:53;-4.69;88.35
70271;SHT31;57680;54.292;18.598;2023-02-28T01:22:18;-4.92;88.69
70271;SHT31;57680;54.292;18.598;2023-02-28T01:24:44;-5.08;89.27
70271;SHT31;57680;54.292;18.598;2023-02-28T01:27:09;-5.18;89.68
70271;SHT31;57680;54.292;18.598;2023-02-28T01:29:35;-5.35;90.08
70271;SHT31;57680;54.292;18.598;2023-02-28T01:32:00;-5.37;88.83
70271;SHT31;57680;54.292;18.598;2023-02-28T01:34:25;-5.45;89.52
70271;SHT31;57680;54.292;18.598;2023-02-28T01:36:51;-5.54;89.92
70271;SHT31;57680;54.292;18.598;2023-02-28T01:39:16;-5.64;90.92
70271;SHT31;57680;54.292;18.598;2023-02-28T01:41:42;-5.71;91.36
70271;SHT31;57680;54.292;18.598;2023-02-28T01:47:11;-5.81;92.48
70271;SHT31;57680;54.292;18.598;2023-02-28T01:49:37;-5.76;92.37
70271;SHT31;57680;54.292;18.598;2023-02-28T01:52:03;-5.81;92.34
70271;SHT31;57680;54.292;18.598;2023-02-28T01:54:31;-5.85;92.69
70271;SHT31;57680;54.292;18.598;2023-02-28T01:57:01;-5.71;92.13
70271;SHT31;57680;54.292;18.598;2023-02-28T01:59:35;-5.62;91.91
70271;SHT31;57680;54.292;18.598;2023-02-28T02:02:02;-5.54;91.60
70271;SHT31;57680;54.292;18.598;2023-02-28T02:04:34;-5.58;91.51
70271;SHT31;57680;54.292;18.598;2023-02-28T02:07:01;-5.64;91.83
70271;SHT31;57680;54.292;18.598;2023-02-28T02:09:26;-5.64;91.78
70271;SHT31;57680;54.292;18.598;2023-02-28T02:11:55;-5.58;92.40
70271;SHT31;57680;54.292;18.598;2023-02-28T02:14:51;-5.51;92.04
70271;SHT31;57680;54.292;18.598;2023-02-28T02:17:24;-5.59;91.81
70271;SHT31;57680;54.292;18.598;2023-02-28T02:20:27;-5.72;91.27
70271;SHT31;57680;54.292;18.598;2023-02-28T02:22:54;-5.81;92.10
70271;SHT31;57680;54.292;18.598;2023-02-28T02:25:45;-5.76;92.65
70271;SHT31;57680;54.292;18.598;2023-02-28T02:28:22;-5.68;93.53
70271;SHT31;57680;54.292;18.598;2023-02-28T02:36:23;-5.35;92.40
70271;SHT31;57680;54.292;18.598;2023-02-28T02:41:34;-4.79;92.53
70271;SHT31;57680;54.292;18.598;2023-02-28T02:44:11;-4.68;91.28
70271;SHT31;57680;54.292;18.598;2023-02-28T02:46:42;-4.55;90.70
70271;SHT31;57680;54.292;18.598;2023-02-28T02:49:13;-4.49;90.34
70271;SHT31;57680;54.292;18.598;2023-02-28T02:51:40;-4.42;89.78
70271;SHT31;57680;54.292;18.598;2023-02-28T02:54:43;-4.32;91.32
70271;SHT31;57680;54.292;18.598;2023-02-28T02:57:35;-4.17;90.90
70271;SHT31;57680;54.292;18.598;2023-02-28T03:00:03;-4.04;90.69
70271;SHT31;57680;54.292;18.598;2023-02-28T03:02:29;-3.94;89.91
70271;SHT31;57680;54.292;18.598;2023-02-28T03:05:01;-3.91;89.52
70271;SHT31;57680;54.292;18.598;2023-02-28T03:07:27;-3.86;89.40
70271;SHT31;57680;54.292;18.598;2023-02-28T03:09:54;-3.86;89.02
70271;SHT31;57680;54.292;18.598;2023-02-28T03:12:20;-3.86;88.71
70271;SHT31;57680;54.292;18.598;2023-02-28T03:15:18;-3.90;88.66
70271;SHT31;57680;54.292;18.598;2023-02-28T03:18:10;-3.97;88.87
70271;SHT31;57680;54.292;18.598;2023-02-28T03:20:51;-3.96;88.50
70271;SHT31;57680;54.292;18.598;2023-02-28T03:23:23;-4.13;88.04
70271;SHT31;57680;54.292;18.598;2023-02-28T03:25:58;-4.34;87.73
70271;SHT31;57680;54.292;18.598;2023-02-28T03:31:19;-4.72;87.73
70271;SHT31;57680;54.292;18.598;2023-02-28T03:33:47;-4.86;87.66
70271;SHT31;57680;54.292;18.598;2023-02-28T03:36:18;-4.96;89.38
70271;SHT31;57680;54.292;18.598;2023-02-28T03:39:21;-4.95;89.93
70271;SHT31;57680;54.292;18.598;2023-02-28T03:42:44;-4.77;91.01
70271;SHT31;57680;54.292;18.598;2023-02-28T03:44:54;-4.56;90.99
70271;SHT31;57680;54.292;18.598;2023-02-28T03:49:53;-4.25;90.61
70271;SHT31;57680;54.292;18.598;2023-02-28T03:52:23;-4.34;89.14
70271;SHT31;57680;54.292;18.598;2023-02-28T03:54:56;-4.55;88.76
70271;SHT31;57680;54.292;18.598;2023-02-28T03:57:47;-4.66;89.20
70271;SHT31;57680;54.292;18.598;2023-02-28T04:00:21;-4.83;88.54
70271;SHT31;57680;54.292;18.598;2023-02-28T04:02:50;-5.06;89.40
70271;SHT31;57680;54.292;18.598;2023-02-28T04:05:15;-5.11;90.72
70271;SHT31;57680;54.292;18.598;2023-02-28T04:07:41;-5.13;90.63
70271;SHT31;57680;54.292;18.598;2023-02-28T04:10:06;-5.18;90.60
70271;SHT31;57680;54.292;18.598;2023-02-28T04:12:32;-5.21;90.99
70271;SHT31;57680;54.292;18.598;2023-02-28T04:14:57;-5.16;91.92
70271;SHT31;57680;54.292;18.598;2023-02-28T04:17:23;-5.11;91.59
70271;SHT31;57680;54.292;18.598;2023-02-28T04:19:48;-5.07;91.64
70271;SHT31;57680;54.292;18.598;2023-02-28T04:22:14;-5.00;91.79
70271;SHT31;57680;54.292;18.598;2023-02-28T04:24:40;-4.97;91.42
70271;SHT31;57680;54.292;18.598;2023-02-28T04:27:05;-4.99;91.11
70271;SHT31;57680;54.292;18.598;2023-02-28T04:29:31;-5.03;90.82
70271;SHT31;57680;54.292;18.598;2023-02-28T04:31:58;-5.08;90.46
70271;SHT31;57680;54.292;18.598;2023-02-28T04:34:24;-5.13;90.92
70271;SHT31;57680;54.292;18.598;2023-02-28T04:36:50;-5.20;90.91
70271;SHT31;57680;54.292;18.598;2023-02-28T04:39:16;-5.27;90.84
70271;SHT31;57680;54.292;18.598;2023-02-28T04:41:42;-5.26;91.04
70271;SHT31;57680;54.292;18.598;2023-02-28T04:44:07;-5.31;90.89
70271;SHT31;57680;54.292;18.598;2023-02-28T04:46:32;-5.32;91.03
70271;SHT31;57680;54.292;18.598;2023-02-28T04:48:58;-5.38;91.20
70271;SHT31;57680;54.292;18.598;2023-02-28T04:51:23;-5.41;91.20
70271;SHT31;57680;54.292;18.598;2023-02-28T04:53:49;-5.44;91.34
70271;SHT31;57680;54.292;18.598;2023-02-28T04:56:16;-5.44;91.47
70271;SHT31;57680;54.292;18.598;2023-02-28T04:58:42;-5.44;91.37
70271;SHT31;57680;54.292;18.598;2023-02-28T05:01:20;-5.47;91.45
70271;SHT31;57680;54.292;18.598;2023-02-28T05:03:46;-5.44;92.15
70271;SHT31;57680;54.292;18.598;2023-02-28T05:06:12;-5.41;91.76
70271;SHT31;57680;54.292;18.598;2023-02-28T05:08:38;-5.35;91.38
70271;SHT31;57680;54.292;18.598;2023-02-28T05:11:12;-5.31;90.85
70271;SHT31;57680;54.292;18.598;2023-02-28T05:13:38;-5.37;90.47
70271;SHT31;57680;54.292;18.598;2023-02-28T05:16:04;-5.48;90.66
70271;SHT31;57680;54.292;18.598;2023-02-28T05:18:29;-5.38;92.38
70271;SHT31;57680;54.292;18.598;2023-02-28T05:20:54;-5.37;92.07
70271;SHT31;57680;54.292;18.598;2023-02-28T05:23:22;-5.37;91.94
70271;SHT31;57680;54.292;18.598;2023-02-28T05:25:47;-5.30;92.06
70271;SHT31;57680;54.292;18.598;2023-02-28T05:28:13;-5.28;91.66
70271;SHT31;57680;54.292;18.598;2023-02-28T05:30:38;-5.31;91.45
70271;SHT31;57680;54.292;18.598;2023-02-28T05:33:03;-5.31;91.64
70271;SHT31;57680;54.292;18.598;2023-02-28T05:35:29;-5.32;91.47
70271;SHT31;57680;54.292;18.598;2023-02-28T05:37:54;-5.37;91.39
70271;SHT31;57680;54.292;18.598;2023-02-28T05:40:20;-5.27;91.78
70271;SHT31;57680;54.292;18.598;2023-02-28T05:42:46;-5.17;91.76
70271;SHT31;57680;54.292;18.598;2023-02-28T05:45:12;-4.93;91.86
70271;SHT31;57680;54.292;18.598;2023-02-28T05:47:37;-4.79;91.19
70271;SHT31;57680;54.292;18.598;2023-02-28T05:50:04;-4.56;90.34
70271;SHT31;57680;54.292;18.598;2023-02-28T05:52:30;-4.46;89.63
70271;SHT31;57680;54.292;18.598;2023-02-28T05:54:56;-4.38;88.68
70271;SHT31;57680;54.292;18.598;2023-02-28T05:57:22;-4.18;88.64
70271;SHT31;57680;54.292;18.598;2023-02-28T05:59:47;-3.91;87.60
70271;SHT31;57680;54.292;18.598;2023-02-28T06:02:14;-3.58;86.70
70271;SHT31;57680;54.292;18.598;2023-02-28T06:04:40;-3.28;84.40
70271;SHT31;57680;54.292;18.598;2023-02-28T06:07:06;-3.32;82.20
70271;SHT31;57680;54.292;18.598;2023-02-28T06:09:32;-3.27;82.92
70271;SHT31;57680;54.292;18.598;2023-02-28T06:11:59;-2.83;81.98
70271;SHT31;57680;54.292;18.598;2023-02-28T06:14:24;-2.49;82.73
70271;SHT31;57680;54.292;18.598;2023-02-28T06:16:50;-2.11;82.22
70271;SHT31;57680;54.292;18.598;2023-02-28T06:19:16;-1.75;79.82
70271;SHT31;57680;54.292;18.598;2023-02-28T06:21:41;-1.38;79.02
70271;SHT31;57680;54.292;18.598;2023-02-28T06:24:07;-1.11;78.48
70271;SHT31;57680;54.292;18.598;2023-02-28T06:26:33;-0.88;78.27
70271;SHT31;57680;54.292;18.598;2023-02-28T06:28:59;-0.88;76.00
70271;SHT31;57680;54.292;18.598;2023-02-28T06:31:25;-0.72;75.27
70271;SHT31;57680;54.292;18.598;2023-02-28T06:33:50;-0.67;74.51
70271;SHT31;57680;54.292;18.598;2023-02-28T06:36:16;-0.80;75.69
70271;SHT31;57680;54.292;18.598;2023-02-28T06:38:42;-0.68;75.24
70271;SHT31;57680;54.292;18.598;2023-02-28T06:41:08;-0.44;75.08
70271;SHT31;57680;54.292;18.598;2023-02-28T06:43:36;-0.26;73.50
70271;SHT31;57680;54.292;18.598;2023-02-28T06:46:04;-0.17;72.51
70271;SHT31;57680;54.292;18.598;2023-02-28T06:48:30;-0.26;73.89
70271;SHT31;57680;54.292;18.598;2023-02-28T06:51:09;0.05;74.50
70271;SHT31;57680;54.292;18.598;2023-02-28T06:53:36;0.41;73.08
70271;SHT31;57680;54.292;18.598;2023-02-28T06:56:06;0.70;72.89
70271;SHT31;57680;54.292;18.598;2023-02-28T06:58:33;1.01;72.35
70271;SHT31;57680;54.292;18.598;2023-02-28T07:00:59;1.20;71.23
70271;SHT31;57680;54.292;18.598;2023-02-28T07:03:24;1.37;70.95
70271;SHT31;57680;54.292;18.598;2023-02-28T07:05:50;1.52;70.80
70271;SHT31;57680;54.292;18.598;2023-02-28T07:08:15;1.65;70.68
70271;SHT31;57680;54.292;18.598;2023-02-28T07:10:41;1.75;69.53
70271;SHT31;57680;54.292;18.598;2023-02-28T07:13:08;1.73;70.14
70271;SHT31;57680;54.292;18.598;2023-02-28T07:15:34;1.72;70.09
70271;SHT31;57680;54.292;18.598;2023-02-28T07:18:00;1.81;70.07
70271;SHT31;57680;54.292;18.598;2023-02-28T07:20:26;1.78;70.30
70271;SHT31;57680;54.292;18.598;2023-02-28T07:22:51;1.90;70.95
70271;SHT31;57680;54.292;18.598;2023-02-28T07:25:17;1.95;70.18
70271;SHT31;57680;54.292;18.598;2023-02-28T07:27:42;2.02;70.59
70271;SHT31;57680;54.292;18.598;2023-02-28T07:30:08;2.13;70.21
70271;SHT31;57680;54.292;18.598;2023-02-28T07:32:33;2.16;70.35
70271;SHT31;57680;54.292;18.598;2023-02-28T07:34:59;2.24;70.07
70271;SHT31;57680;54.292;18.598;2023-02-28T07:37:24;2.19;69.34
70271;SHT31;57680;54.292;18.598;2023-02-28T07:39:49;2.06;69.08
70271;SHT31;57680;54.292;18.598;2023-02-28T07:42:15;2.13;70.01
70271;SHT31;57680;54.292;18.598;2023-02-28T07:44:41;2.17;71.45
70271;SHT31;57680;54.292;18.598;2023-02-28T07:47:07;2.26;71.37
70271;SHT31;57680;54.292;18.598;2023-02-28T07:49:34;2.44;71.03
70271;SHT31;57680;54.292;18.598;2023-02-28T07:52:00;2.58;70.23
70271;SHT31;57680;54.292;18.598;2023-02-28T07:54:25;2.77;69.94
70271;SHT31;57680;54.292;18.598;2023-02-28T07:56:51;2.92;69.54
70271;SHT31;57680;54.292;18.598;2023-02-28T07:59:16;3.08;69.16
70271;SHT31;57680;54.292;18.598;2023-02-28T08:01:41;3.09;69.00
70271;SHT31;57680;54.292;18.598;2023-02-28T08:04:07;3.11;68.54
70271;SHT31;57680;54.292;18.598;2023-02-28T08:06:32;3.12;68.53
70271;SHT31;57680;54.292;18.598;2023-02-28T08:08:58;3.15;68.35
70271;SHT31;57680;54.292;18.598;2023-02-28T08:11:23;3.24;67.90
70271;SHT31;57680;54.292;18.598;2023-02-28T08:13:49;3.30;67.50
70271;SHT31;57680;54.292;18.598;2023-02-28T08:16:14;3.23;67.96
70271;SHT31;57680;54.292;18.598;2023-02-28T08:18:40;3.24;67.93
70271;SHT31;57680;54.292;18.598;2023-02-28T08:21:09;3.34;67.32
70271;SHT31;57680;54.292;18.598;2023-02-28T08:23:35;3.50;67.78
70271;SHT31;57680;54.292;18.598;2023-02-28T08:26:01;3.54;67.16
70271;SHT31;57680;54.292;18.598;2023-02-28T08:28:27;3.82;67.63
70271;SHT31;57680;54.292;18.598;2023-02-28T08:30:52;3.90;66.88
70271;SHT31;57680;54.292;18.598;2023-02-28T08:33:18;3.90;67.68
70271;SHT31;57680;54.292;18.598;2023-02-28T08:35:43;4.25;67.00
70271;SHT31;57680;54.292;18.598;2023-02-28T08:38:08;4.38;65.67
70271;SHT31;57680;54.292;18.598;2023-02-28T08:40:34;4.39;64.92
70271;SHT31;57680;54.292;18.598;2023-02-28T08:42:59;4.64;65.05
70271;SHT31;57680;54.292;18.598;2023-02-28T08:45:25;4.73;64.71
70271;SHT31;57680;54.292;18.598;2023-02-28T08:47:50;4.84;63.60
70271;SHT31;57680;54.292;18.598;2023-02-28T08:50:16;4.95;63.29
70271;SHT31;57680;54.292;18.598;2023-02-28T08:52:44;5.18;63.19
70271;SHT31;57680;54.292;18.598;2023-02-28T08:55:10;5.15;62.92
70271;SHT31;57680;54.292;18.598;2023-02-28T08:57:36;5.25;62.19
70271;SHT31;57680;54.292;18.598;2023-02-28T09:00:02;5.34;61.25
70271;SHT31;57680;54.292;18.598;2023-02-28T09:02:28;5.28;61.79
70271;SHT31;57680;54.292;18.598;2023-02-28T09:04:53;5.28;60.71
70271;SHT31;57680;54.292;18.598;2023-02-28T09:07:19;5.52;60.60
70271;SHT31;57680;54.292;18.598;2023-02-28T09:09:45;5.73;60.87
70271;SHT31;57680;54.292;18.598;2023-02-28T09:12:10;5.66;59.94
70271;SHT31;57680;54.292;18.598;2023-02-28T09:14:36;5.65;59.79
70271;SHT31;57680;54.292;18.598;2023-02-28T09:17:01;5.67;59.62
70271;SHT31;57680;54.292;18.598;2023-02-28T09:19:26;5.70;60.35
70271;SHT31;57680;54.292;18.598;2023-02-28T09:21:52;5.48;59.47
70271;SHT31;57680;54.292;18.598;2023-02-28T09:24:17;5.38;61.06
70271;SHT31;57680;54.292;18.598;2023-02-28T09:26:43;5.38;60.43
70271;SHT31;57680;54.292;18.598;2023-02-28T09:29:08;5.28;60.13
70271;SHT31;57680;54.292;18.598;2023-02-28T09:31:34;5.55;60.50
70271;SHT31;57680;54.292;18.598;2023-02-28T09:33:59;5.55;59.81
70271;SHT31;57680;54.292;18.598;2023-02-28T09:36:26;5.10;59.92
70271;SHT31;57680;54.292;18.598;2023-02-28T09:38:52;5.08;60.98
70271;SHT31;57680;54.292;18.598;2023-02-28T09:41:24;5.25;60.40
70271;SHT31;57680;54.292;18.598;2023-02-28T09:43:53;5.52;59.56
70271;SHT31;57680;54.292;18.598;2023-02-28T09:46:37;5.73;59.02
70271;SHT31;57680;54.292;18.598;2023-02-28T09:49:17;6.02;58.73
70271;SHT31;57680;54.292;18.598;2023-02-28T09:51:57;5.73;57.59
70271;SHT31;57680;54.292;18.598;2023-02-28T09:54:28;5.82;58.38
70271;SHT31;57680;54.292;18.598;2023-02-28T09:57:07;5.73;57.60
70271;SHT31;57680;54.292;18.598;2023-02-28T10:00:54;5.58;58.89
70271;SHT31;57680;54.292;18.598;2023-02-28T10:03:06;5.56;58.58
70271;SHT31;57680;54.292;18.598;2023-02-28T10:08:21;5.58;58.61
70271;SHT31;57680;54.292;18.598;2023-02-28T10:10:55;5.24;59.35
70271;SHT31;57680;54.292;18.598;2023-02-28T10:13:27;5.21;59.82
70271;SHT31;57680;54.292;18.598;2023-02-28T10:16:31;5.18;59.42
70271;SHT31;57680;54.292;18.598;2023-02-28T10:19:11;4.98;60.11
70271;SHT31;57680;54.292;18.598;2023-02-28T10:21:47;5.01;60.55
70271;SHT31;57680;54.292;18.598;2023-02-28T10:24:32;4.97;59.95
70271;SHT31;57680;54.292;18.598;2023-02-28T10:27:02;5.00;59.47
70271;SHT31;57680;54.292;18.598;2023-02-28T10:29:32;5.27;59.53
70271;SHT31;57680;54.292;18.598;2023-02-28T10:32:01;5.39;59.63
70271;SHT31;57680;54.292;18.598;2023-02-28T10:34:27;5.49;58.94
70271;SHT31;57680;54.292;18.598;2023-02-28T10:36:53;5.58;58.93
70271;SHT31;57680;54.292;18.598;2023-02-28T10:42:25;5.94;57.43
70271;SHT31;57680;54.292;18.598;2023-02-28T10:45:16;5.87;56.79
70271;SHT31;57680;54.292;18.598;2023-02-28T10:50:52;5.97;55.79
70271;SHT31;57680;54.292;18.598;2023-02-28T10:59:01;6.07;54.40
70271;SHT31;57680;54.292;18.598;2023-02-28T11:03:55;6.20;53.55
70271;SHT31;57680;54.292;18.598;2023-02-28T11:06:30;6.38;53.91
70271;SHT31;57680;54.292;18.598;2023-02-28T11:09:02;6.17;51.82
70271;SHT31;57680;54.292;18.598;2023-02-28T11:11:30;6.02;52.33
70271;SHT31;57680;54.292;18.598;2023-02-28T11:14:20;6.11;52.85
70271;SHT31;57680;54.292;18.598;2023-02-28T11:16:46;5.96;53.43
70271;SHT31;57680;54.292;18.598;2023-02-28T11:19:40;5.93;53.21
70271;SHT31;57680;54.292;18.598;2023-02-28T11:22:04;6.07;53.12
70271;SHT31;57680;54.292;18.598;2023-02-28T11:24:34;6.17;51.97
70271;SHT31;57680;54.292;18.598;2023-02-28T11:27:01;6.03;53.74
70271;SHT31;57680;54.292;18.598;2023-02-28T11:29:29;6.04;52.41
70271;SHT31;57680;54.292;18.598;2023-02-28T11:32:18;5.79;51.39
70271;SHT31;57680;54.292;18.598;2023-02-28T11:34:45;5.62;52.24
70271;SHT31;57680;54.292;18.598;2023-02-28T11:37:18;5.70;52.05
70271;SHT31;57680;54.292;18.598;2023-02-28T11:39:45;5.73;52.87
70271;SHT31;57680;54.292;18.598;2023-02-28T11:45:19;5.79;54.07
70271;SHT31;57680;54.292;18.598;2023-02-28T11:48:23;5.69;51.52
70271;SHT31;57680;54.292;18.598;2023-02-28T12:04:27;6.48;51.34
70271;SHT31;57680;54.292;18.598;2023-02-28T12:07:41;6.41;51.55
70271;SHT31;57680;54.292;18.598;2023-02-28T12:09:48;6.40;51.06
70271;SHT31;57680;54.292;18.598;2023-02-28T12:12:46;6.38;51.25
70271;SHT31;57680;54.292;18.598;2023-02-28T12:23:46;6.46;51.24
70271;SHT31;57680;54.292;18.598;2023-02-28T12:29:04;6.33;50.36
70271;SHT31;57680;54.292;18.598;2023-02-28T12:31:36;6.24;50.40
70271;SHT31;57680;54.292;18.598;2023-02-28T12:34:08;6.20;50.60
70271;SHT31;57680;54.292;18.598;2023-02-28T12:36:36;6.23;50.46
70271;SHT31;57680;54.292;18.598;2023-02-28T12:39:20;6.17;50.79
70271;SHT31;57680;54.292;18.598;2023-02-28T12:41:53;6.10;49.78
70271;SHT31;57680;54.292;18.598;2023-02-28T12:44:32;6.00;50.97
70271;SHT31;57680;54.292;18.598;2023-02-28T12:47:10;5.92;51.16
70271;SHT31;57680;54.292;18.598;2023-02-28T12:49:56;5.96;51.89
70271;SHT31;57680;54.292;18.598;2023-02-28T12:53:09;5.73;51.76
70271;SHT31;57680;54.292;18.598;2023-02-28T12:55:56;5.63;52.35
70271;SHT31;57680;54.292;18.598;2023-02-28T12:58:36;5.66;52.74
70271;SHT31;57680;54.292;18.598;2023-02-28T13:04:21;5.70;52.81
70271;SHT31;57680;54.292;18.598;2023-02-28T13:10:04;5.55;53.23
70271;SHT31;57680;54.292;18.598;2023-02-28T13:12:30;5.48;53.71
70271;SHT31;57680;54.292;18.598;2023-02-28T13:15:07;5.42;55.33
70271;SHT31;57680;54.292;18.598;2023-02-28T13:17:33;5.38;54.50
70271;SHT31;57680;54.292;18.598;2023-02-28T13:19:59;5.32;55.70
70271;SHT31;57680;54.292;18.598;2023-02-28T13:24:54;5.43;55.39
70271;SHT31;57680;54.292;18.598;2023-02-28T13:29:48;5.38;55.10
70271;SHT31;57680;54.292;18.598;2023-02-28T13:32:29;5.46;55.94
70271;SHT31;57680;54.292;18.598;2023-02-28T13:47:44;5.27;57.05
70271;SHT31;57680;54.292;18.598;2023-02-28T13:58:41;4.98;58.11
70271;SHT31;57680;54.292;18.598;2023-02-28T14:01:29;4.95;57.82
70271;SHT31;57680;54.292;18.598;2023-02-28T14:07:02;4.85;57.08
70271;SHT31;57680;54.292;18.598;2023-02-28T14:09:37;4.84;57.76
70271;SHT31;57680;54.292;18.598;2023-02-28T14:17:55;4.76;59.03
70271;SHT31;57680;54.292;18.598;2023-02-28T14:20:22;4.83;59.00
70271;SHT31;57680;54.292;18.598;2023-02-28T14:25:42;4.81;58.83
70271;SHT31;57680;54.292;18.598;2023-02-28T14:31:12;4.70;59.35
70271;SHT31;57680;54.292;18.598;2023-02-28T14:33:47;4.74;60.13
70271;SHT31;57680;54.292;18.598;2023-02-28T14:36:24;4.77;59.17
70271;SHT31;57680;54.292;18.598;2023-02-28T14:38:55;4.76;59.57
70271;SHT31;57680;54.292;18.598;2023-02-28T14:41:29;4.72;59.18
70271;SHT31;57680;54.292;18.598;2023-02-28T14:43:57;4.69;59.67
70271;SHT31;57680;54.292;18.598;2023-02-28T14:46:27;4.67;59.84
70271;SHT31;57680;54.292;18.598;2023-02-28T14:48:54;4.66;59.99
70271;SHT31;57680;54.292;18.598;2023-02-28T14:51:21;4.64;59.98
70271;SHT31;57680;54.292;18.598;2023-02-28T14:53:51;4.62;59.61
70271;SHT31;57680;54.292;18.598;2023-02-28T14:56:30;4.49;59.26
70271;SHT31;57680;54.292;18.598;2023-02-28T14:58:58;4.39;60.18
70271;SHT31;57680;54.292;18.598;2023-02-28T15:01:25;4.39;60.16
70271;SHT31;57680;54.292;18.598;2023-02-28T15:04:05;4.32;60.71
70271;SHT31;57680;54.292;18.598;2023-02-28T15:06:31;4.29;61.14
70271;SHT31;57680;54.292;18.598;2023-02-28T15:11:36;4.28;61.00
70271;SHT31;57680;54.292;18.598;2023-02-28T15:14:04;4.23;61.89
70271;SHT31;57680;54.292;18.598;2023-02-28T15:16:34;4.21;61.94
70271;SHT31;57680;54.292;18.598;2023-02-28T15:19:25;4.21;62.20
70271;SHT31;57680;54.292;18.598;2023-02-28T15:21:59;4.11;62.75
70271;SHT31;57680;54.292;18.598;2023-02-28T15:24:41;4.09;62.69
70271;SHT31;57680;54.292;18.598;2023-02-28T15:27:12;4.03;63.47
70271;SHT31;57680;54.292;18.598;2023-02-28T15:29:47;4.02;63.37
70271;SHT31;57680;54.292;18.598;2023-02-28T15:32:29;4.01;63.84
70271;SHT31;57680;54.292;18.598;2023-02-28T15:34:56;3.91;64.19
70271;SHT31;57680;54.292;18.598;2023-02-28T15:37:47;3.73;64.91
70271;SHT31;57680;54.292;18.598;2023-02-28T15:40:32;3.64;65.41
70271;SHT31;57680;54.292;18.598;2023-02-28T15:48:31;3.42;66.09
70271;SHT31;57680;54.292;18.598;2023-02-28T15:51:18;3.29;66.55
70271;SHT31;57680;54.292;18.598;2023-02-28T15:54:18;3.18;66.98
70271;SHT31;57680;54.292;18.598;2023-02-28T15:56:44;3.08;67.06
70271;SHT31;57680;54.292;18.598;2023-02-28T15:59:23;3.06;67.40
70271;SHT31;57680;54.292;18.598;2023-02-28T16:02:13;2.93;67.71
70271;SHT31;57680;54.292;18.598;2023-02-28T16:05:36;2.87;68.08
70271;SHT31;57680;54.292;18.598;2023-02-28T16:07:43;2.74;68.33
70271;SHT31;57680;54.292;18.598;2023-02-28T16:10:11;2.60;68.77
70271;SHT31;57680;54.292;18.598;2023-02-28T16:12:38;2.45;69.10
70271;SHT31;57680;54.292;18.598;2023-02-28T16:15:25;2.33;69.50
70271;SHT31;57680;54.292;18.598;2023-02-28T16:17:52;2.21;69.94
70271;SHT31;57680;54.292;18.598;2023-02-28T16:20:27;2.14;70.29
70271;SHT31;57680;54.292;18.598;2023-02-28T16:22:52;2.02;70.51
70271;SHT31;57680;54.292;18.598;2023-02-28T16:25:22;1.92;70.66
70271;SHT31;57680;54.292;18.598;2023-02-28T16:27:50;1.81;71.65
70271;SHT31;57680;54.292;18.598;2023-02-28T16:30:23;1.66;72.05
70271;SHT31;57680;54.292;18.598;2023-02-28T16:32:50;1.59;72.21
70271;SHT31;57680;54.292;18.598;2023-02-28T16:35:17;1.61;72.77
70271;SHT31;57680;54.292;18.598;2023-02-28T16:37:45;1.52;72.79
70271;SHT31;57680;54.292;18.598;2023-02-28T16:40:18;1.50;72.99
70271;SHT31;57680;54.292;18.598;2023-02-28T16:42:45;1.42;73.27
70271;SHT31;57680;54.292;18.598;2023-02-28T16:45:31;1.38;73.56
70271;SHT31;57680;54.292;18.598;2023-02-28T16:47:57;1.31;73.82
70271;SHT31;57680;54.292;18.598;2023-02-28T16:50:28;1.21;73.90
70271;SHT31;57680;54.292;18.598;2023-02-28T16:52:54;1.13;74.56
70271;SHT31;57680;54.292;18.598;2023-02-28T16:55:21;1.05;74.70
70271;SHT31;57680;54.292;18.598;2023-02-28T16:57:53;1.03;74.98
70271;SHT31;57680;54.292;18.598;2023-02-28T17:00:19;0.93;75.20
70271;SHT31;57680;54.292;18.598;2023-02-28T17:02:45;0.89;75.74
70271;SHT31;57680;54.292;18.598;2023-02-28T17:05:13;0.84;75.51
70271;SHT31;57680;54.292;18.598;2023-02-28T17:07:39;0.83;75.68
70271;SHT31;57680;54.292;18.598;2023-02-28T17:10:14;0.79;76.06
70271;SHT31;57680;54.292;18.598;2023-02-28T17:12:40;0.72;76.25
70271;SHT31;57680;54.292;18.598;2023-02-28T17:15:06;0.66;76.44
70271;SHT31;57680;54.292;18.598;2023-02-28T17:17:32;0.65;76.74
70271;SHT31;57680;54.292;18.598;2023-02-28T17:19:57;0.62;76.60
70271;SHT31;57680;54.292;18.598;2023-02-28T17:22:23;0.56;76.97
70271;SHT31;57680;54.292;18.598;2023-02-28T17:24:48;0.52;76.93
70271;SHT31;57680;54.292;18.598;2023-02-28T17:27:13;0.62;77.01
70271;SHT31;57680;54.292;18.598;2023-02-28T17:29:39;0.60;76.98
70271;SHT31;57680;54.292;18.598;2023-02-28T17:32:04;0.66;76.89
70271;SHT31;57680;54.292;18.598;2023-02-28T17:34:30;0.69;76.54
70271;SHT31;57680;54.292;18.598;2023-02-28T17:36:55;0.68;76.48
70271;SHT31;57680;54.292;18.598;2023-02-28T17:39:21;0.72;76.47
70271;SHT31;57680;54.292;18.598;2023-02-28T17:41:46;0.69;76.26